North Canton, Connecticut
Current Conditions -  °F | °C
As of 12:51 PM on Tuesday 21 Oct 2014 (Local Time) from KBDL Reporting Station
Broken Clouds Broken Clouds  
Wind Chill: 61°   Ceiling: 9000
Heat Index: 61°   Visibility: 10mi
Dew Point: 47°   Wind: 7mph
Humidity: 60%   Direction: 330°NNW
Pressure: 29.9"   Gusts: NA
Location:  41.94°N, 72.91°W
Report Text: KBDL 211651Z 33006KT 10SM FEW035 BKN090 16/08 A2990 RMK AO2 SLP126 T01610083
Loading
Personal Weather Stations






























Interactive Weather Map
Tropical Storm Tracking
New forecast layout! Learn more

10-Day Weather Forecast

Advertisements
Track Severe Weather on mobile